createdAt,value
2023-05-21T00:00:43.886Z,546.3
2023-05-21T00:01:45.578Z,546.2
2023-05-21T00:02:47.851Z,546.5
2023-05-21T00:03:50.593Z,546.4
2023-05-21T00:04:52.521Z,546.6
2023-05-21T00:05:54.275Z,546.8
2023-05-21T00:06:56.045Z,546.5
2023-05-21T00:07:57.869Z,546.5
2023-05-21T00:08:59.763Z,546.7
2023-05-21T00:10:01.539Z,546.9
2023-05-21T00:11:03.307Z,547
2023-05-21T00:12:05.018Z,547.2
2023-05-21T00:13:06.815Z,547.4
2023-05-21T00:14:08.561Z,547.3
2023-05-21T00:15:10.593Z,547.2
2023-05-21T00:16:12.573Z,547.6
2023-05-21T00:17:14.417Z,547.5
2023-05-21T00:18:16.265Z,547.8
2023-05-21T00:19:18.372Z,547.8
2023-05-21T00:20:20.211Z,547.9
2023-05-21T00:21:21.914Z,547.8
2023-05-21T00:22:23.803Z,547.9
2023-05-21T00:23:25.597Z,547.8
2023-05-21T00:24:27.363Z,547.6
2023-05-21T00:25:29.054Z,547.7
2023-05-21T00:26:33.559Z,547.9
2023-05-21T00:27:35.164Z,547.9
2023-05-21T00:28:36.784Z,548.1
2023-05-21T00:29:38.455Z,548.1
2023-05-21T00:30:40.311Z,548.5
2023-05-21T00:31:42.547Z,548.4
2023-05-21T00:32:44.855Z,548.3
2023-05-21T00:33:46.680Z,548.1
2023-05-21T00:34:48.400Z,548.1
2023-05-21T00:35:50.111Z,548.3
2023-05-21T00:36:51.927Z,548.5
2023-05-21T00:37:53.800Z,548.3
2023-05-21T00:38:55.427Z,548.7
2023-05-21T00:39:58.928Z,548.6
2023-05-21T00:41:00.756Z,548.6
2023-05-21T00:42:02.596Z,548.5
2023-05-21T00:43:04.329Z,548.3
2023-05-21T00:44:05.912Z,548.4
2023-05-21T00:45:07.579Z,548.5
2023-05-21T00:46:09.588Z,548.6
2023-05-21T00:47:11.439Z,548.8
2023-05-21T00:48:13.137Z,548.8
2023-05-21T00:49:14.827Z,549
2023-05-21T00:50:16.790Z,548.8
2023-05-21T00:51:19.146Z,548.5
2023-05-21T00:52:20.996Z,548.3
2023-05-21T00:53:22.853Z,548.6
2023-05-21T00:54:24.557Z,548.7
2023-05-21T00:55:26.719Z,548.6
2023-05-21T00:56:28.887Z,548.8
2023-05-21T00:57:30.754Z,548.6
2023-05-21T00:58:32.614Z,549.1
2023-05-21T00:59:34.346Z,548.9
2023-05-21T01:00:36.115Z,549
2023-05-21T01:01:38.264Z,548.9
2023-05-21T01:02:40.576Z,549.3
2023-05-21T01:03:42.775Z,549.4
2023-05-21T01:04:44.530Z,549.3
2023-05-21T01:05:46.486Z,549.4
2023-05-21T01:06:48.431Z,549.5
2023-05-21T01:07:50.197Z,549.3
2023-05-21T01:08:52.060Z,549.6
2023-05-21T01:09:53.702Z,549.7
2023-05-21T01:10:55.521Z,549.7
2023-05-21T01:11:57.313Z,549.8
2023-05-21T01:12:58.954Z,549.7
2023-05-21T01:14:00.568Z,549.5
2023-05-21T01:15:02.408Z,549.9
2023-05-21T01:16:04.121Z,549.8
2023-05-21T01:17:06.121Z,549.9
2023-05-21T01:18:08.204Z,549.8
2023-05-21T01:19:10.507Z,549.9
2023-05-21T01:20:12.597Z,550
2023-05-21T01:21:14.534Z,550.1
2023-05-21T01:22:16.500Z,549.9
2023-05-21T01:23:18.168Z,549.9
2023-05-21T01:24:19.910Z,549.8
2023-05-21T01:25:21.666Z,549.7
2023-05-21T01:26:23.391Z,550.1
2023-05-21T01:27:25.235Z,550.1
2023-05-21T01:28:26.997Z,550.3
2023-05-21T01:29:28.659Z,550.2
2023-05-21T01:30:30.408Z,550.5
2023-05-21T01:31:32.211Z,550.2
2023-05-21T01:32:34.261Z,550.6
2023-05-21T01:33:36.845Z,550.4
2023-05-21T01:34:40.338Z,550.4
2023-05-21T01:35:42.705Z,550.6
2023-05-21T01:36:44.481Z,550.7
2023-05-21T01:37:46.287Z,550.6
2023-05-21T01:38:48.057Z,550.8
2023-05-21T01:39:49.993Z,550.8
2023-05-21T01:40:51.605Z,550.7
2023-05-21T01:41:53.384Z,550.7
2023-05-21T01:42:55.228Z,550.6
2023-05-21T01:43:57.193Z,550.3
2023-05-21T01:44:58.832Z,550.9
2023-05-21T01:46:00.857Z,550.4
2023-05-21T01:47:02.745Z,550.5
2023-05-21T01:48:04.900Z,550.8
2023-05-21T01:49:06.845Z,551
2023-05-21T01:50:08.701Z,551.1
2023-05-21T01:51:10.409Z,551
2023-05-21T01:52:12.254Z,551.1
2023-05-21T01:53:14.151Z,551.2
2023-05-21T01:54:15.827Z,551
2023-05-21T01:55:17.499Z,550.9
2023-05-21T01:56:19.277Z,550.8
2023-05-21T01:57:21.024Z,550.9
2023-05-21T01:58:22.766Z,550.8
2023-05-21T01:59:24.520Z,551.3
2023-05-21T02:00:26.183Z,550.8
2023-05-21T02:01:27.908Z,551.3
2023-05-21T02:02:30.213Z,550.9
2023-05-21T02:03:32.720Z,551
2023-05-21T02:04:34.695Z,551.1
2023-05-21T02:05:37.721Z,550.8
2023-05-21T02:06:39.608Z,551.1
2023-05-21T02:07:41.289Z,551.5
2023-05-21T02:08:43.125Z,551.1
2023-05-21T02:09:44.693Z,551.3
2023-05-21T02:10:46.425Z,551.4
2023-05-21T02:11:48.268Z,551.7
2023-05-21T02:12:50.108Z,551.8
2023-05-21T02:13:51.860Z,551.8
2023-05-21T02:14:53.603Z,552
2023-05-21T02:15:55.914Z,552.2
2023-05-21T02:16:57.824Z,552.3
2023-05-21T02:17:59.813Z,552
2023-05-21T02:19:01.841Z,552
2023-05-21T02:20:03.579Z,552.4
2023-05-21T02:21:05.430Z,552
2023-05-21T02:22:07.299Z,552.3
2023-05-21T02:23:08.932Z,552.1
2023-05-21T02:24:10.874Z,551.8
2023-05-21T02:25:12.828Z,552.1
2023-05-21T02:26:14.818Z,552.2
2023-05-21T02:27:16.639Z,551.9
2023-05-21T02:28:18.485Z,551.9
2023-05-21T02:29:20.445Z,552
2023-05-21T02:30:22.295Z,552
2023-05-21T02:31:24.141Z,552
2023-05-21T02:32:26.305Z,552.5
2023-05-21T02:33:27.913Z,552.7
2023-05-21T02:34:29.796Z,552.8
2023-05-21T02:35:31.437Z,552.5
2023-05-21T02:36:33.095Z,552.8
2023-05-21T02:37:34.958Z,552.6
2023-05-21T02:38:36.716Z,552.5
2023-05-21T02:39:38.734Z,552.4
2023-05-21T02:40:40.686Z,552.3
2023-05-21T02:41:42.703Z,552.3
2023-05-21T02:42:44.604Z,552.4
2023-05-21T02:43:46.275Z,552.3
2023-05-21T02:44:47.913Z,552.5
2023-05-21T02:45:49.630Z,552.5
2023-05-21T02:46:51.465Z,552.6
2023-05-21T02:47:56.349Z,552.5
2023-05-21T02:48:58.254Z,552.3
2023-05-21T02:49:59.923Z,553
2023-05-21T02:51:01.756Z,553.1
2023-05-21T02:52:03.704Z,553.1
2023-05-21T02:53:05.412Z,553.1
2023-05-21T02:54:07.050Z,552.7
2023-05-21T02:55:08.784Z,552.6
2023-05-21T02:56:10.996Z,552.5
2023-05-21T02:57:12.895Z,552.6
2023-05-21T02:58:14.500Z,552.9
2023-05-21T02:59:16.120Z,553.1
2023-05-21T03:00:17.727Z,553
2023-05-21T03:01:19.858Z,553.2
2023-05-21T03:02:22.180Z,553.2
2023-05-21T03:03:24.690Z,553.2
2023-05-21T03:04:26.449Z,553.1
2023-05-21T03:05:28.049Z,553
2023-05-21T03:06:29.740Z,552.7
2023-05-21T03:07:31.348Z,552.9
2023-05-21T03:08:33.006Z,553.1
2023-05-21T03:09:34.702Z,553.1
2023-05-21T03:10:36.334Z,552.9
2023-05-21T03:11:37.944Z,553.3
2023-05-21T03:12:39.603Z,553.2
2023-05-21T03:13:41.641Z,553.1
2023-05-21T03:14:43.469Z,552.9
2023-05-21T03:15:45.319Z,553.1
2023-05-21T03:16:47.289Z,552.8
2023-05-21T03:17:49.357Z,552.7
2023-05-21T03:18:51.334Z,552.5
2023-05-21T03:19:53.334Z,552.8
2023-05-21T03:20:54.986Z,552.7
2023-05-21T03:21:56.642Z,552.6
2023-05-21T03:22:58.316Z,552.3
2023-05-21T03:23:59.974Z,552.2
2023-05-21T03:25:01.794Z,552.1
2023-05-21T03:26:03.717Z,552
2023-05-21T03:27:05.442Z,552.2
2023-05-21T03:28:07.091Z,552.2
2023-05-21T03:29:08.784Z,551.9
2023-05-21T03:30:10.352Z,552
2023-05-21T03:31:12.009Z,552.1
2023-05-21T03:32:14.423Z,552
2023-05-21T03:33:16.255Z,552
2023-05-21T03:34:17.926Z,552.1
2023-05-21T03:35:19.753Z,552.1
2023-05-21T03:36:21.598Z,552.3
2023-05-21T03:37:23.367Z,552.2
2023-05-21T03:38:24.980Z,551.7
2023-05-21T03:39:26.658Z,551.9
2023-05-21T03:40:28.302Z,551.8
2023-05-21T03:41:30.141Z,551.6
2023-05-21T03:42:31.897Z,551.8
2023-05-21T03:43:33.748Z,552
2023-05-21T03:44:35.413Z,551.9
2023-05-21T03:45:39.871Z,551.7
2023-05-21T03:46:42.957Z,551.6
2023-05-21T03:47:44.901Z,551.8
2023-05-21T03:48:46.653Z,551.9
2023-05-21T03:49:48.354Z,551.9
2023-05-21T03:50:50.174Z,552.1
2023-05-21T03:51:51.890Z,552.4
2023-05-21T03:52:53.473Z,552.6
2023-05-21T03:53:55.111Z,552.6
2023-05-21T03:54:56.768Z,552.4
2023-05-21T03:55:58.622Z,552.5
2023-05-21T03:57:00.759Z,552.4
2023-05-21T03:58:02.611Z,552.4
2023-05-21T03:59:04.405Z,552.5
2023-05-21T04:00:06.059Z,552.2
2023-05-21T04:01:07.743Z,552.2
2023-05-21T04:02:09.580Z,552.3
2023-05-21T04:03:12.120Z,552.2
2023-05-21T04:04:14.386Z,552.3
2023-05-21T04:05:16.094Z,552.5
2023-05-21T04:06:17.674Z,552.5
2023-05-21T04:07:19.272Z,552.2
2023-05-21T04:08:20.882Z,552
2023-05-21T04:09:22.521Z,552.2
2023-05-21T04:10:24.171Z,552
2023-05-21T04:11:25.945Z,552.2
2023-05-21T04:12:27.696Z,552.1
2023-05-21T04:13:29.511Z,552.1
2023-05-21T04:14:31.175Z,552.4
2023-05-21T04:15:32.754Z,552.3
2023-05-21T04:16:35.048Z,552.3
2023-05-21T04:17:36.913Z,552.3
2023-05-21T04:18:38.502Z,552.2
2023-05-21T04:19:40.550Z,552.5
2023-05-21T04:20:42.169Z,552.3
2023-05-21T04:21:43.786Z,552.1
2023-05-21T04:22:45.390Z,552.2
2023-05-21T04:23:46.991Z,552.2
2023-05-21T04:24:48.751Z,552.4
2023-05-21T04:25:50.385Z,552.5
2023-05-21T04:26:52.007Z,552.7
2023-05-21T04:27:53.669Z,552.5
2023-05-21T04:28:55.296Z,552.7
2023-05-21T04:29:56.965Z,552.9
2023-05-21T04:30:58.732Z,552.5
2023-05-21T04:32:00.464Z,552.1
2023-05-21T04:33:02.305Z,552.3
2023-05-21T04:34:04.010Z,552
2023-05-21T04:35:05.602Z,552.5
2023-05-21T04:36:07.177Z,552.4
2023-05-21T04:37:08.746Z,552.9
2023-05-21T04:38:10.387Z,552.6
2023-05-21T04:39:12.017Z,552.4
2023-05-21T04:40:13.862Z,552.4
2023-05-21T04:41:15.537Z,552.3
2023-05-21T04:42:17.318Z,552.1
2023-05-21T04:43:19.193Z,551.8
2023-05-21T04:44:20.972Z,551.9
2023-05-21T04:45:22.588Z,552.1
2023-05-21T04:46:24.334Z,551.9
2023-05-21T04:47:26.313Z,551.9
2023-05-21T04:48:27.975Z,551.8
2023-05-21T04:49:29.671Z,551.9
2023-05-21T04:50:31.509Z,551.7
2023-05-21T04:51:33.154Z,551.7
2023-05-21T04:52:34.739Z,552.1
2023-05-21T04:53:36.345Z,551.9
2023-05-21T04:54:37.982Z,552.2
2023-05-21T04:55:39.591Z,552.1
2023-05-21T04:56:41.253Z,552.1
2023-05-21T04:57:42.867Z,552.1
2023-05-21T04:58:44.656Z,552
2023-05-21T04:59:46.279Z,552.2
2023-05-21T05:00:48.168Z,552
2023-05-21T05:01:49.792Z,552.5
2023-05-21T05:02:52.023Z,552.3
2023-05-21T05:03:54.257Z,552.6
2023-05-21T05:04:56.127Z,552.4
2023-05-21T05:05:57.737Z,552.3
2023-05-21T05:06:59.395Z,552.5
2023-05-21T05:08:01.046Z,552.3
2023-05-21T05:09:02.689Z,552.3
2023-05-21T05:10:04.336Z,552.1
2023-05-21T05:11:05.930Z,552.4
2023-05-21T05:12:07.646Z,552.3
2023-05-21T05:13:09.276Z,552.2
2023-05-21T05:14:11.022Z,552.6
2023-05-21T05:15:12.642Z,552.2
2023-05-21T05:16:14.483Z,552.5
2023-05-21T05:17:16.221Z,552.3
2023-05-21T05:18:17.840Z,552.3
2023-05-21T05:19:19.869Z,552.2
2023-05-21T05:20:21.573Z,551.9
2023-05-21T05:21:23.230Z,551.5
2023-05-21T05:22:24.822Z,551.9
2023-05-21T05:23:26.439Z,551.7
2023-05-21T05:24:28.028Z,551.8
2023-05-21T05:25:29.630Z,551.7
2023-05-21T05:26:31.285Z,551.4
2023-05-21T05:27:32.948Z,551.9
2023-05-21T05:28:34.541Z,551.7
2023-05-21T05:29:36.362Z,551.4
2023-05-21T05:30:38.438Z,552
2023-05-21T05:31:40.656Z,551.6
2023-05-21T05:32:42.681Z,551.9
2023-05-21T05:33:44.300Z,551.8
2023-05-21T05:34:45.878Z,552.1
2023-05-21T05:35:47.476Z,552.1
2023-05-21T05:36:49.180Z,551.6
2023-05-21T05:37:50.816Z,551.9
2023-05-21T05:38:52.438Z,552
2023-05-21T05:39:54.217Z,552.1
2023-05-21T05:40:56.148Z,552.2
2023-05-21T05:41:57.848Z,552.4
2023-05-21T05:42:59.441Z,551.8
2023-05-21T05:44:01.050Z,552.4
2023-05-21T05:45:02.695Z,552.4
2023-05-21T05:46:04.676Z,552.3
2023-05-21T05:47:06.519Z,552.6
2023-05-21T05:48:08.419Z,552.7
2023-05-21T05:49:10.179Z,552.6
2023-05-21T05:50:12.081Z,552.5
2023-05-21T05:51:13.926Z,552.3
2023-05-21T05:52:15.578Z,552.6
2023-05-21T05:53:17.392Z,552.5
2023-05-21T05:54:19.082Z,552.4
2023-05-21T05:55:20.738Z,553
2023-05-21T05:56:22.361Z,552.6
2023-05-21T05:57:23.976Z,552.6
2023-05-21T05:58:25.758Z,552.6
2023-05-21T05:59:27.656Z,552.5
2023-05-21T06:00:29.354Z,552.6
2023-05-21T06:01:31.022Z,552.3
2023-05-21T06:02:33.468Z,552.7
2023-05-21T06:03:35.919Z,552.6
2023-05-21T06:04:37.689Z,552.5
2023-05-21T06:05:40.937Z,552.6
2023-05-21T06:06:42.715Z,552.9
2023-05-21T06:07:44.421Z,553
2023-05-21T06:08:46.203Z,553.5
2023-05-21T06:09:47.883Z,553.5
2023-05-21T06:10:49.520Z,552.9
2023-05-21T06:11:51.199Z,553.4
2023-05-21T06:12:52.981Z,553.5
2023-05-21T06:13:54.678Z,553.2
2023-05-21T06:14:56.296Z,553.3
2023-05-21T06:15:58.170Z,553.1
2023-05-21T06:16:59.790Z,553
2023-05-21T06:18:01.733Z,553.5
2023-05-21T06:19:03.815Z,553.3
2023-05-21T06:20:05.683Z,553.5
2023-05-21T06:21:07.323Z,553.5
2023-05-21T06:22:09.106Z,553.4
2023-05-21T06:23:10.967Z,553.6
2023-05-21T06:24:12.716Z,553.5
2023-05-21T06:25:14.688Z,553.5
2023-05-21T06:26:16.304Z,553.9
2023-05-21T06:27:18.042Z,553.7
2023-05-21T06:28:19.649Z,554
2023-05-21T06:29:21.299Z,554.1
2023-05-21T06:30:23.074Z,554
2023-05-21T06:31:25.063Z,553.8
2023-05-21T06:32:27.199Z,553.7
2023-05-21T06:33:29.668Z,553.9
2023-05-21T06:34:31.634Z,553.9
2023-05-21T06:35:33.283Z,553.9
2023-05-21T06:36:35.124Z,554.1
2023-05-21T06:37:36.831Z,554.1
2023-05-21T06:38:38.472Z,554.2
2023-05-21T06:39:40.165Z,554.8
2023-05-21T06:40:42.015Z,554.7
2023-05-21T06:41:43.975Z,554.8
2023-05-21T06:42:45.823Z,554.7
2023-05-21T06:43:47.651Z,554.7
2023-05-21T06:44:49.431Z,554.4
2023-05-21T06:45:51.312Z,554.5
2023-05-21T06:46:53.157Z,554.8
2023-05-21T06:47:54.898Z,555
2023-05-21T06:48:56.670Z,554.8
2023-05-21T06:49:58.286Z,554.8
2023-05-21T06:50:59.879Z,555.2
2023-05-21T06:52:01.572Z,554.9
2023-05-21T06:53:03.224Z,555
2023-05-21T06:54:04.856Z,554.8
2023-05-21T06:55:06.558Z,554.9
2023-05-21T06:56:08.280Z,554.8
2023-05-21T06:57:09.946Z,554.7
2023-05-21T06:58:11.621Z,555.2
2023-05-21T06:59:13.365Z,554.9
2023-05-21T07:00:15.038Z,555.2
2023-05-21T07:01:17.274Z,555.2
2023-05-21T07:02:19.585Z,554.8
2023-05-21T07:03:22.108Z,555.1
2023-05-21T07:04:23.913Z,555
2023-05-21T07:05:25.591Z,555
2023-05-21T07:06:27.236Z,555.7
2023-05-21T07:07:28.899Z,555.9
2023-05-21T07:08:30.517Z,556
2023-05-21T07:09:32.126Z,556.2
2023-05-21T07:10:33.796Z,556.1
2023-05-21T07:11:35.473Z,555.9
2023-05-21T07:12:37.052Z,555.5
2023-05-21T07:13:38.787Z,555.3
2023-05-21T07:14:40.518Z,555.5
2023-05-21T07:15:42.209Z,555.8
2023-05-21T07:16:44.101Z,556
2023-05-21T07:17:46.288Z,555.8
2023-05-21T07:18:48.084Z,556.1
2023-05-21T07:19:49.738Z,556
2023-05-21T07:20:51.421Z,555.9
2023-05-21T07:21:53.245Z,555.6
2023-05-21T07:22:55.086Z,555.6
2023-05-21T07:23:57.046Z,555.5
2023-05-21T07:24:58.885Z,555.6
2023-05-21T07:26:00.961Z,555.9
2023-05-21T07:27:26.446Z,555.8
2023-05-21T07:28:28.205Z,555.7
2023-05-21T07:29:29.810Z,555.7
2023-05-21T07:30:31.469Z,555.4
2023-05-21T07:31:33.810Z,555.3
2023-05-21T07:32:36.162Z,555.3
2023-05-21T07:33:37.912Z,555.2
2023-05-21T07:34:39.500Z,555.7
2023-05-21T07:35:41.146Z,555.4
2023-05-21T07:36:42.810Z,555.6
2023-05-21T07:37:44.634Z,555.6
2023-05-21T07:38:46.250Z,555.4
2023-05-21T07:39:47.871Z,555.7
2023-05-21T07:40:49.483Z,555.5
2023-05-21T07:41:51.134Z,555.4
2023-05-21T07:42:52.724Z,555.3
2023-05-21T07:43:54.334Z,555.2
2023-05-21T07:44:56.144Z,555.5
2023-05-21T07:45:58.039Z,555.5
2023-05-21T07:46:59.760Z,555.5
2023-05-21T07:48:01.944Z,555.3
2023-05-21T07:49:03.707Z,555.3
2023-05-21T07:50:05.327Z,554.7
2023-05-21T07:51:06.992Z,554.9
2023-05-21T07:52:08.918Z,555.5
2023-05-21T07:53:10.970Z,555.3
2023-05-21T07:54:12.689Z,555
2023-05-21T07:55:14.320Z,555.3
2023-05-21T07:56:15.971Z,555.5
2023-05-21T07:57:17.618Z,555.6
2023-05-21T07:58:19.634Z,555.7
2023-05-21T07:59:21.392Z,555.5
2023-05-21T08:00:22.992Z,556
2023-05-21T08:01:24.567Z,556.2
2023-05-21T08:02:26.845Z,555.9
2023-05-21T08:03:29.550Z,555.7
2023-05-21T08:04:32.191Z,556
2023-05-21T08:05:34.245Z,556.1
2023-05-21T08:06:36.041Z,556.1
2023-05-21T08:07:37.648Z,555.9
2023-05-21T08:08:39.268Z,556.1
2023-05-21T08:09:41.165Z,555.9
2023-05-21T08:10:42.802Z,555.8
2023-05-21T08:11:44.478Z,556
2023-05-21T08:12:46.144Z,556.1
2023-05-21T08:13:47.825Z,556.1
2023-05-21T08:14:49.619Z,556.1
2023-05-21T08:15:54.178Z,556.3
2023-05-21T08:16:55.830Z,555.9
2023-05-21T08:17:57.858Z,556
2023-05-21T08:18:59.738Z,555.6
2023-05-21T08:20:01.538Z,556.2
2023-05-21T08:21:03.369Z,556.4
2023-05-21T08:22:05.267Z,556.2
2023-05-21T08:23:07.177Z,556.3
2023-05-21T08:24:08.966Z,556.2
2023-05-21T08:25:10.792Z,556.3
2023-05-21T08:26:12.621Z,556.4
2023-05-21T08:27:14.468Z,556.8
2023-05-21T08:28:16.227Z,556.8
2023-05-21T08:29:17.843Z,556.4
2023-05-21T08:30:19.524Z,556.2
2023-05-21T08:31:21.684Z,555.9
2023-05-21T08:32:23.789Z,556.2
2023-05-21T08:33:25.693Z,556.3
2023-05-21T08:34:27.529Z,556.2
2023-05-21T08:35:29.502Z,556.1
2023-05-21T08:36:31.186Z,556.5
2023-05-21T08:37:33.114Z,556
2023-05-21T08:38:34.828Z,556.6
2023-05-21T08:39:36.922Z,556.3
2023-05-21T08:40:38.665Z,556.6
2023-05-21T08:41:40.461Z,556.6
2023-05-21T08:42:42.228Z,556.4
2023-05-21T08:43:43.943Z,556
2023-05-21T08:44:45.524Z,556.2
2023-05-21T08:45:47.379Z,556
2023-05-21T08:46:48.985Z,556.6
2023-05-21T08:47:51.099Z,556.6
2023-05-21T08:48:53.012Z,556.4
2023-05-21T08:49:54.795Z,556.7
2023-05-21T08:50:56.622Z,556.7
2023-05-21T08:51:58.587Z,556.2
2023-05-21T08:53:00.441Z,556.8
2023-05-21T08:54:02.158Z,556.8
2023-05-21T08:55:04.114Z,557.5
2023-05-21T08:56:05.841Z,556.9
2023-05-21T08:57:07.818Z,556.5
2023-05-21T08:58:09.980Z,556.4
2023-05-21T08:59:11.929Z,556.7
2023-05-21T09:00:13.614Z,556.4
2023-05-21T09:01:15.323Z,556.2
2023-05-21T09:02:17.162Z,556.4
2023-05-21T09:03:19.590Z,556.2
2023-05-21T09:04:22.799Z,556.1
2023-05-21T09:05:24.662Z,556.5
2023-05-21T09:06:26.735Z,556.3
2023-05-21T09:07:28.462Z,555.5
2023-05-21T09:08:30.236Z,555.3
2023-05-21T09:09:32.066Z,555.6
2023-05-21T09:10:33.910Z,555.6
2023-05-21T09:11:35.737Z,555.3
2023-05-21T09:12:37.331Z,555.2
2023-05-21T09:13:39.637Z,555.4
2023-05-21T09:14:41.407Z,555.5
2023-05-21T09:15:43.162Z,555.1
2023-05-21T09:16:45.142Z,555.3
2023-05-21T09:17:47.145Z,555.2
2023-05-21T09:18:49.048Z,555
2023-05-21T09:19:50.977Z,555.1
2023-05-21T09:20:52.939Z,555.3
2023-05-21T09:21:54.772Z,555.4
2023-05-21T09:22:56.658Z,555.1
2023-05-21T09:23:58.348Z,555.3
2023-05-21T09:25:00.235Z,555
2023-05-21T09:26:01.975Z,555.4
2023-05-21T09:27:03.591Z,555.7
2023-05-21T09:28:05.301Z,555.4
2023-05-21T09:29:07.016Z,555.4
2023-05-21T09:30:08.881Z,555.4
2023-05-21T09:31:10.880Z,555.8
2023-05-21T09:32:12.876Z,556
2023-05-21T09:33:15.049Z,555.9
2023-05-21T09:34:16.881Z,555.9
2023-05-21T09:35:18.725Z,556
2023-05-21T09:36:20.450Z,556.1
2023-05-21T09:37:28.569Z,556.1
2023-05-21T09:38:30.429Z,556.2
2023-05-21T09:39:32.421Z,556.6
2023-05-21T09:40:34.442Z,556.4
2023-05-21T09:41:36.670Z,556.7
2023-05-21T09:42:38.425Z,556.7
2023-05-21T09:43:40.126Z,556.9
2023-05-21T09:44:41.935Z,556.8
2023-05-21T09:45:43.629Z,556.6
2023-05-21T09:46:45.769Z,556.9
2023-05-21T09:47:47.818Z,556.7
2023-05-21T09:48:52.617Z,556.7
2023-05-21T09:49:54.451Z,557
2023-05-21T09:50:56.306Z,557
2023-05-21T09:51:58.255Z,557.2
2023-05-21T09:53:00.735Z,556.8
2023-05-21T09:54:02.394Z,556.8
2023-05-21T09:55:04.204Z,556.9
2023-05-21T09:56:05.815Z,556.9
2023-05-21T09:57:07.479Z,556.9
2023-05-21T09:58:09.258Z,557.1
2023-05-21T09:59:11.207Z,557.1
2023-05-21T10:00:12.961Z,557.2
2023-05-21T10:01:14.728Z,557.4
2023-05-21T10:02:17.086Z,557.5
2023-05-21T10:03:19.230Z,558.1
2023-05-21T10:04:21.133Z,557.8
2023-05-21T10:05:22.909Z,557.8
2023-05-21T10:06:24.502Z,557.8
2023-05-21T10:07:26.729Z,558.3
2023-05-21T10:08:28.354Z,558
2023-05-21T10:09:29.931Z,558.4
2023-05-21T10:10:31.977Z,558.1
2023-05-21T10:11:33.730Z,558.3
2023-05-21T10:12:35.356Z,558.7
2023-05-21T10:13:36.959Z,558.5
2023-05-21T10:14:38.558Z,558.3
2023-05-21T10:15:40.226Z,558.2
2023-05-21T10:16:42.389Z,558.3
2023-05-21T10:17:44.441Z,558.4
2023-05-21T10:18:46.169Z,557.9
2023-05-21T10:19:47.803Z,558.8
2023-05-21T10:20:49.390Z,558.8
2023-05-21T10:21:53.200Z,559
2023-05-21T10:22:54.813Z,558.7
2023-05-21T10:23:56.529Z,558.6
2023-05-21T10:24:58.174Z,559.2
2023-05-21T10:25:59.883Z,558.8
2023-05-21T10:27:01.475Z,558.7
2023-05-21T10:28:03.034Z,558.6
2023-05-21T10:29:04.690Z,559
2023-05-21T10:30:06.311Z,558.9
2023-05-21T10:31:08.050Z,559.1
2023-05-21T10:32:10.164Z,559.3
2023-05-21T10:33:12.057Z,559
2023-05-21T10:34:13.841Z,559.5
2023-05-21T10:35:15.441Z,559.1
2023-05-21T10:36:17.083Z,559.6
2023-05-21T10:37:18.744Z,559.9
2023-05-21T10:38:20.396Z,559.7
2023-05-21T10:39:22.104Z,559.9
2023-05-21T10:40:26.363Z,559.7
2023-05-21T10:41:28.143Z,559.9
2023-05-21T10:42:29.815Z,560.5
2023-05-21T10:43:31.487Z,560.2
2023-05-21T10:44:33.137Z,560.3
2023-05-21T10:45:35.047Z,560.2
2023-05-21T10:46:36.760Z,559.9
2023-05-21T10:47:38.606Z,559.9
2023-05-21T10:48:40.365Z,559.7
2023-05-21T10:49:42.061Z,559.7
2023-05-21T10:50:43.839Z,559.7
2023-05-21T10:51:45.428Z,559.7
2023-05-21T10:52:47.087Z,559.8
2023-05-21T10:53:48.683Z,559.8
2023-05-21T10:54:50.510Z,560.1
2023-05-21T10:55:52.295Z,560.2
2023-05-21T10:56:53.946Z,559.8
2023-05-21T10:57:55.528Z,560.1
2023-05-21T10:58:57.180Z,560.1
2023-05-21T10:59:58.757Z,559.9
2023-05-21T11:01:00.670Z,560.1
2023-05-21T11:02:02.637Z,560.1
2023-05-21T11:03:04.998Z,560.2
2023-05-21T11:04:06.868Z,560.3
2023-05-21T11:05:08.522Z,560.2
2023-05-21T11:06:10.341Z,560.3
2023-05-21T11:07:12.073Z,560.4
2023-05-21T11:08:13.747Z,560.3
2023-05-21T11:09:15.357Z,560.4
2023-05-21T11:10:17.034Z,560.7
2023-05-21T11:11:18.616Z,560.7
2023-05-21T11:12:20.416Z,561.1
2023-05-21T11:13:22.343Z,561.4
2023-05-21T11:14:24.106Z,561.4
2023-05-21T11:15:25.721Z,561.4
2023-05-21T11:16:27.429Z,561.6
2023-05-21T11:17:29.458Z,561.8
2023-05-21T11:18:31.326Z,561.8
2023-05-21T11:19:35.330Z,562
2023-05-21T11:20:38.107Z,561.7
2023-05-21T11:21:39.960Z,562.1
2023-05-21T11:22:41.835Z,562.2
2023-05-21T11:23:43.425Z,562.2
2023-05-21T11:24:45.170Z,562.3
2023-05-21T11:25:47.988Z,562.1
2023-05-21T11:26:49.594Z,562.6
2023-05-21T11:27:51.342Z,562.4
2023-05-21T11:28:52.929Z,562.4
2023-05-21T11:29:54.576Z,562.7
2023-05-21T11:30:56.268Z,562.6
2023-05-21T11:31:57.920Z,563
2023-05-21T11:32:59.774Z,562.7
2023-05-21T11:34:01.748Z,562.9
2023-05-21T11:35:03.383Z,562.6
2023-05-21T11:36:05.107Z,562.7
2023-05-21T11:37:06.779Z,562.8
2023-05-21T11:38:08.514Z,562.6
2023-05-21T11:39:12.810Z,562.6
2023-05-21T11:40:14.477Z,562.6
2023-05-21T11:41:16.160Z,562.5
2023-05-21T11:42:17.753Z,562.5
2023-05-21T11:43:19.532Z,562.7
2023-05-21T11:44:21.226Z,562.8
2023-05-21T11:45:22.820Z,562.8
2023-05-21T11:46:25.101Z,562.7
2023-05-21T11:47:27.032Z,562.9
2023-05-21T11:48:33.031Z,563.1
2023-05-21T11:49:34.619Z,562.8
2023-05-21T11:50:37.228Z,563.2
2023-05-21T11:51:39.168Z,563
2023-05-21T11:52:40.800Z,563.1
2023-05-21T11:53:44.978Z,562.9
2023-05-21T11:54:46.959Z,563.3
2023-05-21T11:55:48.539Z,563.3
2023-05-21T11:56:50.196Z,562.9
2023-05-21T11:57:52.052Z,563.4
2023-05-21T11:58:53.813Z,563.3
2023-05-21T11:59:55.448Z,563.3
2023-05-21T12:00:57.112Z,563.6
2023-05-21T12:01:58.721Z,563.6
2023-05-21T12:03:00.842Z,563.8
2023-05-21T12:04:03.194Z,563.9
2023-05-21T12:05:05.088Z,563.8
2023-05-21T12:06:07.267Z,563.4
2023-05-21T12:07:08.992Z,563.9
2023-05-21T12:08:10.570Z,563.7
2023-05-21T12:09:12.410Z,563.6
2023-05-21T12:10:14.260Z,563.8
2023-05-21T12:11:15.988Z,563.9
2023-05-21T12:12:17.650Z,563.8
2023-05-21T12:13:19.276Z,564.1
2023-05-21T12:14:21.409Z,564.2
2023-05-21T12:15:23.507Z,564.4
2023-05-21T12:16:25.517Z,564.4
2023-05-21T12:17:27.387Z,564.4
2023-05-21T12:18:29.051Z,563.9
2023-05-21T12:19:31.280Z,564.5
2023-05-21T12:20:32.994Z,564.4
2023-05-21T12:21:34.610Z,564.2
2023-05-21T12:22:36.408Z,564.2
2023-05-21T12:23:38.001Z,564.4
2023-05-21T12:24:39.678Z,564.3
2023-05-21T12:25:41.261Z,564.3
2023-05-21T12:26:42.852Z,564.2
2023-05-21T12:27:44.560Z,564
2023-05-21T12:28:46.175Z,564
2023-05-21T12:29:47.842Z,564
2023-05-21T12:30:49.448Z,564
2023-05-21T12:31:51.441Z,564.2
2023-05-21T12:32:53.681Z,564.5
2023-05-21T12:33:55.421Z,564.6
2023-05-21T12:34:57.038Z,564.5
2023-05-21T12:35:59.071Z,564.6
2023-05-21T12:37:00.654Z,564.9
2023-05-21T12:38:02.319Z,564.5
2023-05-21T12:39:03.922Z,565
2023-05-21T12:40:05.570Z,564.7
2023-05-21T12:41:07.508Z,564.8
2023-05-21T12:42:09.158Z,565.2
2023-05-21T12:43:10.921Z,564.9
2023-05-21T12:44:12.529Z,565
2023-05-21T12:45:14.466Z,565.4
2023-05-21T12:46:16.906Z,565.2
2023-05-21T12:47:18.635Z,565.1
2023-05-21T12:48:20.278Z,564.9
2023-05-21T12:49:21.978Z,565.2
2023-05-21T12:50:23.586Z,565.3
2023-05-21T12:51:25.227Z,565.1
2023-05-21T12:52:26.805Z,565.4
2023-05-21T12:53:28.628Z,565.7
2023-05-21T12:54:30.237Z,565.3
2023-05-21T12:55:31.884Z,565.8
2023-05-21T12:56:33.490Z,566
2023-05-21T12:57:35.106Z,565.7
2023-05-21T12:58:36.844Z,565.5
2023-05-21T12:59:38.494Z,565.7
2023-05-21T13:00:41.488Z,565.4
2023-05-21T13:01:43.309Z,565.6
2023-05-21T13:02:45.907Z,566.1
2023-05-21T13:03:48.022Z,565.9
2023-05-21T13:04:49.722Z,566.1
2023-05-21T13:05:51.302Z,566.5
2023-05-21T13:06:52.891Z,566.4
2023-05-21T13:07:54.507Z,566.7
2023-05-21T13:08:56.172Z,566.4
2023-05-21T13:09:57.799Z,566.5
2023-05-21T13:10:59.417Z,566.4
2023-05-21T13:12:01.173Z,566.3
2023-05-21T13:13:02.822Z,566.7
2023-05-21T13:14:04.948Z,566.3
2023-05-21T13:15:06.592Z,566.4
2023-05-21T13:16:08.800Z,566.2
2023-05-21T13:17:10.720Z,566.4
2023-05-21T13:18:13.029Z,566.6
2023-05-21T13:19:15.323Z,566.8
2023-05-21T13:20:17.058Z,566.9
2023-05-21T13:21:18.643Z,567.1
2023-05-21T13:22:20.208Z,567.1